ADDS - METARS form results

Aviation Digital Data Service (ADDS)

Output produced by METARs form (1103 UTC 19 April 2019)
found at http://aviationweather.gov/metar/data/
 
METAR text: KPNT 191055Z AUTO 34010KT 10SM SCT015 BKN024 OVC029 06/06 A2978 RMK AO2 T00610059
Conditions at: KPNT (PONTIAC , IL, US) observed 1055 UTC 19 April 2019
Temperature: 6.1°C (43°F)
Dewpoint: 5.9°C (43°F) [RH = 99%]
Pressure (altimeter): 29.78 inches Hg (1008.5 mb)
Winds: from the NNW (340 degrees) at 12 MPH (10 knots; 5.1 m/s)
Visibility: 10 or more miles (16+ km)
Ceiling: 2400 feet AGL
Clouds: scattered clouds at 1500 feet AGL
broken clouds at 2400 feet AGL
overcast cloud deck at 2900 feet AGL
Weather: automated observation with no human augmentation;
there may or may not be significant weather present at this time

METAR text: KPNT 191035Z AUTO 36011KT 10SM OVC026 06/05 A2978 RMK AO2 T00630052
Conditions at: KPNT (PONTIAC , IL, US) observed 1035 UTC 19 April 2019
Temperature: 6.3°C (43°F)
Dewpoint: 5.2°C (41°F) [RH = 93%]
Pressure (altimeter): 29.78 inches Hg (1008.5 mb)
Winds: from the N (360 degrees) at 13 MPH (11 knots; 5.7 m/s)
Visibility: 10 or more miles (16+ km)
Ceiling: 2600 feet AGL
Clouds: overcast cloud deck at 2600 feet AGL
Weather: automated observation with no human augmentation;
there may or may not be significant weather present at this time

METAR text: KPNT 191015Z AUTO 36012G17KT 10SM OVC026 06/05 A2977 RMK AO2 T00630052
Conditions at: KPNT (PONTIAC , IL, US) observed 1015 UTC 19 April 2019
Temperature: 6.3°C (43°F)
Dewpoint: 5.2°C (41°F) [RH = 93%]
Pressure (altimeter): 29.77 inches Hg (1008.2 mb)
Winds: from the N (360 degrees) at 14 MPH (12 knots; 6.2 m/s)
gusting to 20 MPH (17 knots; 8.7 m/s)
Visibility: 10 or more miles (16+ km)
Ceiling: 2600 feet AGL
Clouds: overcast cloud deck at 2600 feet AGL
Weather: automated observation with no human augmentation;
there may or may not be significant weather present at this time